WXM80 ListenWXM80 Stop

You find our weather info also at:

UK Metoffice

WeatherCloud

Weather Underground

Northeastern Weather Network

AWEKAS

Citizen Weather Observer Program (CWOP)

HAMweather, WeatherForYou, PWS Weather


Weather Underground History page Text

Daily Summary for February 21, 2018 Units:  Metric    English   Both
« Previous Day
Next Day »
Daily Weekly Monthly Yearly Custom
  High: Low: Average:
Temperature: 24.4 °C 10.8 °C 16.6 °C
Dew Point: 17.6 °C 6.3 °C 13.7 °C
Humidity: 98 % 64 % 84 %
Wind Speed: 18.5 km/h 0 km/h 7.6 km/h
Wind Gust: 29.6 km/h - -
Wind:- - SSW
Pressure: 1020.9 hPa 1013.4 hPa -
Precipitation: 0.76 mm    
Historical Graphs
 
 
Tabular Data for February 21, 2018
Time Temperature Dew Point Pressure Wind Wind Speed Wind Gust Humidity Rainfall Rate (Hourly)
00:02 12.4 °C 11.3 °C 1018.5 hPa WSW 1.4 km/h 5.6 km/h 93 % 0 mm
00:07 12.3 °C 11.2 °C 1018.5 hPa South 5.5 km/h 11.1 km/h 93 % 0 mm
00:12 12.2 °C 11.1 °C 1018.5 hPa SW 5.6 km/h 13 km/h 93 % 0 mm
00:17 12.2 °C 11.1 °C 1018.5 hPa South 6.6 km/h 13 km/h 93 % 0 mm
00:22 12.1 °C 11.2 °C 1018.5 hPa SW 7.2 km/h 12.9 km/h 94 % 0 mm
00:27 12.1 °C 11.1 °C 1018.5 hPa SW 3.5 km/h 5.6 km/h 94 % 0 mm
00:32 12 °C 11.1 °C 1018.5 hPa SW 3.7 km/h 5.6 km/h 94 % 0 mm
00:37 12 °C 11.1 °C 1018.2 hPa West 4.2 km/h 9.3 km/h 94 % 0 mm
00:42 11.9 °C 11 °C 1018.2 hPa WSW 1 km/h 5.6 km/h 94 % 0 mm
00:48 11.9 °C 11 °C 1018.2 hPa SW 0.5 km/h 5.6 km/h 94 % 0 mm
00:53 11.9 °C 11 °C 1018.2 hPa West 4 km/h 7.4 km/h 94 % 0 mm
00:58 11.9 °C 11 °C 1018.2 hPa Calm   3.7 km/h 94 % 0 mm
01:03 11.9 °C 11.2 °C 1018.2 hPa SSW 2.9 km/h 5.6 km/h 95 % 0 mm
01:08 12 °C 11.2 °C 1017.8 hPa SW 3.2 km/h 7.4 km/h 95 % 0 mm
01:13 12 °C 11.2 °C 1017.8 hPa SSW 3.2 km/h 5.6 km/h 95 % 0 mm
01:18 12.1 °C 11.3 °C 1017.8 hPa Calm     95 % 0 mm
01:23 12.1 °C 11.3 °C 1017.8 hPa SW 0.5 km/h 3.7 km/h 95 % 0 mm
01:28 12.1 °C 11.3 °C 1017.8 hPa Calm     95 % 0 mm
01:33 12.2 °C 11.4 °C 1017.5 hPa Calm   4.8 km/h 95 % 0 mm
01:38 12.3 °C 11.7 °C 1017.5 hPa Calm     96 % 0 mm
01:43 12.3 °C 11.7 °C 1017.5 hPa SSW 3.4 km/h 5.6 km/h 96 % 0 mm
01:48 12.4 °C 11.8 °C 1017.5 hPa WNW 4.8 km/h 13 km/h 96 % 0 mm
01:53 12.5 °C 11.9 °C 1017.5 hPa South 3.1 km/h 9.3 km/h 96 % 0 mm
01:58 12.6 °C 12 °C 1017.2 hPa SW 2.1 km/h 8 km/h 96 % 0 mm
02:03 12.7 °C 12.3 °C 1017.5 hPa SSW 5 km/h 11.3 km/h 97 % 0 mm
02:08 12.9 °C 12.4 °C 1017.2 hPa South 4.8 km/h 14.8 km/h 97 % 0 mm
02:13 13 °C 12.6 °C 1017.2 hPa South 10.6 km/h 16.7 km/h 97 % 0 mm
02:18 13.2 °C 12.7 °C 1017.2 hPa SSW 3.7 km/h 8 km/h 97 % 0 mm
02:24 13.3 °C 12.8 °C 1016.8 hPa SSW 5.5 km/h 9.3 km/h 97 % 0 mm
02:29 13.6 °C 13.2 °C 1017.2 hPa SSW 11.9 km/h 22.2 km/h 97 % 0 mm
02:34 13.9 °C 13.4 °C 1017.2 hPa SSW 10.5 km/h 18.5 km/h 97 % 0 mm
02:39 14.2 °C 13.7 °C 1017.2 hPa SW 13 km/h 29.6 km/h 97 % 0 mm
02:44 14.4 °C 14.1 °C 1016.8 hPa SSW 9.2 km/h 16.1 km/h 98 % 0 mm
02:49 14.5 °C 14.1 °C 1016.8 hPa SSW 8.5 km/h 14.8 km/h 97 % 0 mm
02:54 14.5 °C 14.1 °C 1017.2 hPa SSW 13 km/h 20.4 km/h 97 % 0 mm
02:59 14.5 °C 14.1 °C 1017.2 hPa SSW 14.3 km/h 22.2 km/h 97 % 0 mm
03:04 14.6 °C 14.1 °C 1017.2 hPa WSW 10 km/h 20.4 km/h 97 % 0 mm
03:09 14.5 °C 14.1 °C 1016.8 hPa SSW 8.7 km/h 25.7 km/h 97 % 0 mm
03:14 14.5 °C 14.1 °C 1017.2 hPa SW 8.2 km/h 27.8 km/h 97 % 0 mm
03:19 14.5 °C 14.1 °C 1017.2 hPa SSW 9.2 km/h 18.5 km/h 97 % 0 mm
03:24 14.4 °C 14 °C 1017.2 hPa South 7.6 km/h 19.3 km/h 97 % 0 mm
03:29 14.4 °C 14 °C 1016.8 hPa SSW 9.8 km/h 18.5 km/h 97 % 0 mm
03:34 14.4 °C 13.8 °C 1016.8 hPa SW 6.4 km/h 13 km/h 96 % 0 mm
03:39 14.3 °C 13.7 °C 1016.8 hPa WSW 8 km/h 14.8 km/h 96 % 0 mm
03:45 14.3 °C 13.7 °C 1016.8 hPa SW 10.9 km/h 18.5 km/h 96 % 0 mm
03:50 14.2 °C 13.6 °C 1017.2 hPa WSW 8.9 km/h 18.5 km/h 96 % 0 mm
03:55 14.2 °C 13.6 °C 1017.2 hPa SW 8.4 km/h 13 km/h 96 % 0 mm
04:00 14.1 °C 13.3 °C 1017.2 hPa WSW 7.9 km/h 14.5 km/h 95 % 0 mm
04:05 14 °C 13.2 °C 1017.2 hPa SSW 8 km/h 14.8 km/h 95 % 0 mm
04:10 13.9 °C 13.1 °C 1017.5 hPa WSW 3.5 km/h 7.4 km/h 95 % 0 mm
04:15 13.8 °C 13.1 °C 1017.5 hPa SW 4.8 km/h 16.7 km/h 95 % 0 mm
04:20 13.8 °C 13 °C 1017.5 hPa SW 8 km/h 14.8 km/h 95 % 0 mm
04:25 13.7 °C 12.9 °C 1017.5 hPa SW 6.4 km/h 11.3 km/h 95 % 0 mm
04:30 13.7 °C 12.9 °C 1017.8 hPa SSW 6.3 km/h 9.3 km/h 95 % 0 mm
04:35 13.7 °C 12.9 °C 1017.8 hPa SSW 8.2 km/h 11.3 km/h 95 % 0 mm
04:40 13.6 °C 12.8 °C 1017.8 hPa South 2.4 km/h 8 km/h 95 % 0 mm
04:45 13.6 °C 12.8 °C 1017.8 hPa SW 2.9 km/h 7.4 km/h 95 % 0 mm
04:51 13.6 °C 12.8 °C 1017.5 hPa SW 4.8 km/h 9.7 km/h 95 % 0 mm
04:56 13.6 °C 12.8 °C 1017.5 hPa SSW 4.8 km/h 14.5 km/h 95 % 0 mm
05:01 13.6 °C 12.8 °C 1017.2 hPa SSW 0.5 km/h 1.9 km/h 95 % 0 mm
05:06 13.5 °C 12.7 °C 1017.2 hPa SSW 4.8 km/h 11.3 km/h 95 % 0 mm
05:11 13.5 °C 12.7 °C 1017.5 hPa South 3.5 km/h 11.1 km/h 95 % 0 mm
05:16 13.5 °C 12.7 °C 1017.2 hPa SSW 3.2 km/h 9.7 km/h 95 % 0 mm
05:21 13.5 °C 12.7 °C 1017.2 hPa SW 4.8 km/h 11.3 km/h 95 % 0 mm
05:26 13.5 °C 12.7 °C 1017.2 hPa SW 3.7 km/h 8 km/h 95 % 0 mm
05:31 13.5 °C 12.7 °C 1017.2 hPa SW 3.2 km/h 8 km/h 95 % 0 mm
05:36 13.5 °C 12.7 °C 1017.2 hPa SSW 1.6 km/h 5.6 km/h 95 % 0 mm
05:41 13.4 °C 12.7 °C 1017.2 hPa South 5.5 km/h 5.6 km/h 95 % 0 mm
05:46 13.4 °C 12.6 °C 1017.2 hPa South 4.8 km/h 9.7 km/h 95 % 0 mm
05:51 13.3 °C 12.5 °C 1017.2 hPa South 3.2 km/h 6.4 km/h 95 % 0 mm
05:56 13.2 °C 12.4 °C 1017.2 hPa SSW 8 km/h 14.5 km/h 95 % 0 mm
06:01 13.1 °C 12.3 °C 1017.2 hPa SSW 6.6 km/h 8 km/h 95 % 0 mm
06:06 13.1 °C 12.1 °C 1017.2 hPa SSW 3.2 km/h 11.3 km/h 94 % 0 mm
06:11 13.1 °C 12.3 °C 1016.8 hPa SSW 1.6 km/h 9.7 km/h 95 % 0 mm
06:16 13 °C 12.2 °C 1017.2 hPa SSW 4.8 km/h 11.3 km/h 95 % 0 mm
06:21 13 °C 12.2 °C 1017.2 hPa SSW 3.2 km/h 8 km/h 95 % 0 mm
06:26 13 °C 12.2 °C 1017.2 hPa SSW 4.8 km/h 11.3 km/h 95 % 0 mm
06:31 13 °C 12.2 °C 1016.8 hPa SSW 3.2 km/h 12.9 km/h 95 % 0 mm
06:36 13 °C 12.2 °C 1017.2 hPa SW 1.6 km/h 14.5 km/h 95 % 0 mm
06:41 13 °C 12.2 °C 1016.8 hPa SW 3.2 km/h 9.7 km/h 95 % 0 mm
06:46 12.9 °C 12.2 °C 1017.2 hPa SW 3.2 km/h 11.3 km/h 95 % 0 mm
06:51 12.9 °C 12.2 °C 1017.2 hPa SSW 4.8 km/h 9.7 km/h 95 % 0 mm
06:56 12.8 °C 12.1 °C 1017.5 hPa SSW 4.8 km/h 9.7 km/h 95 % 0 mm
07:01 12.7 °C 11.7 °C 1017.5 hPa South 7.9 km/h 9.7 km/h 94 % 0 mm
07:06 12.5 °C 11.6 °C 1017.2 hPa SSW 4.8 km/h 12.9 km/h 94 % 0 mm
07:11 12.4 °C 11.4 °C 1017.2 hPa South 5.6 km/h 8 km/h 94 % 0 mm
07:16 12.3 °C 11.3 °C 1017.5 hPa SSW 3.2 km/h 11.3 km/h 94 % 0 mm
07:21 12.2 °C 11.3 °C 1017.5 hPa SSW 3.2 km/h 9.3 km/h 94 % 0 mm
07:26 12.2 °C 11.2 °C 1017.5 hPa SSW 4.8 km/h 11.3 km/h 94 % 0 mm
07:31 12.1 °C 11.3 °C 1017.5 hPa SSW 8 km/h 12.9 km/h 95 % 0 mm
07:36 12.1 °C 11.3 °C 1017.5 hPa SSW 4.8 km/h 14.5 km/h 95 % 0 mm
07:41 12.1 °C 11.3 °C 1017.5 hPa SSW 3.2 km/h 8 km/h 95 % 0 mm
07:46 12.1 °C 11.3 °C 1017.5 hPa SSW 3.2 km/h 12.9 km/h 95 % 0 mm
07:51 12.1 °C 11.3 °C 1017.5 hPa SSW 4.8 km/h 11.3 km/h 95 % 0 mm
07:56 12.2 °C 11.6 °C 1017.5 hPa SSW 8 km/h 12.9 km/h 96 % 0 mm
08:01 12.3 °C 11.7 °C 1017.5 hPa South 7.2 km/h 11.1 km/h 96 % 0 mm
08:06 12.4 °C 11.8 °C 1017.5 hPa SSW 9 km/h 18.5 km/h 96 % 0 mm
08:10 12.4 °C 11.8 °C 1017.2 hPa SSW 4.8 km/h 16.7 km/h 96 % 0 mm
08:15 12.6 °C 12 °C 1017.2 hPa SSW 7.2 km/h 14.8 km/h 96 % 0 mm
08:20 12.8 °C 12.2 °C 1017.2 hPa SSW 4.5 km/h 9.3 km/h 96 % 0 mm
08:25 12.9 °C 12.3 °C 1017.2 hPa SW 2.4 km/h 7.4 km/h 96 % 0 mm
08:30 13 °C 12.4 °C 1017.2 hPa SW 5.1 km/h 7.4 km/h 96 % 0 mm
08:35 13.1 °C 12.6 °C 1017.2 hPa SSW 3.1 km/h 5.6 km/h 97 % 0 mm
08:40 13.2 °C 12.7 °C 1017.2 hPa South 3.9 km/h 7.4 km/h 97 % 0 mm
08:45 13.2 °C 12.6 °C 1016.8 hPa SSW 2.7 km/h 5.6 km/h 96 % 0 mm
08:50 13.3 °C 12.7 °C 1017.2 hPa South 5.5 km/h 12.9 km/h 96 % 0 mm
08:55 13.4 °C 13 °C 1016.8 hPa SSW 8 km/h 12.9 km/h 97 % 0 mm
09:00 13.7 °C 13.2 °C 1017.2 hPa SW 4.3 km/h 11.1 km/h 97 % 0 mm
09:05 13.8 °C 13.4 °C 1016.8 hPa SSW 3.2 km/h 8 km/h 97 % 0 mm
09:10 14 °C 13.6 °C 1016.8 hPa SSW 6.1 km/h 16.7 km/h 97 % 0 mm
09:16 14.2 °C 13.7 °C 1016.8 hPa SSW 9.7 km/h 19.3 km/h 97 % 0 mm
09:21 14.3 °C 13.7 °C 1016.8 hPa SSW 9.7 km/h 16.1 km/h 96 % 0 mm
09:26 14.6 °C 13.9 °C 1016.8 hPa SSW 3.2 km/h 12.9 km/h 96 % 0 mm
09:31 14.7 °C 14.1 °C 1016.8 hPa SSW 8.5 km/h 16.7 km/h 96 % 0 mm
09:36 14.9 °C 14.2 °C 1016.8 hPa SW 8 km/h 16.1 km/h 96 % 0 mm
09:41 15.1 °C 14.4 °C 1017.2 hPa SW 9.7 km/h 14.5 km/h 96 % 0 mm
09:46 15.2 °C 14.4 °C 1017.2 hPa SW 3.2 km/h 11.3 km/h 95 % 0 mm
09:51 15.3 °C 14.6 °C 1017.2 hPa SSW 4.8 km/h 11.3 km/h 95 % 0 mm
09:56 15.4 °C 14.5 °C 1017.2 hPa SSW 9.7 km/h 14.5 km/h 94 % 0 mm
10:01 15.6 °C 14.6 °C 1017.2 hPa SSW 5.3 km/h 11.1 km/h 94 % 0 mm
10:06 15.7 °C 14.7 °C 1016.8 hPa SSW 9.7 km/h 19.3 km/h 94 % 0 mm
10:11 15.8 °C 14.9 °C 1016.8 hPa SW 11.4 km/h 14.8 km/h 94 % 0 mm
10:16 16.1 °C 15.1 °C 1016.8 hPa SSW 4.8 km/h 17.7 km/h 94 % 0 mm
10:21 16.3 °C 15.2 °C 1017.2 hPa SSW 4.8 km/h 24.1 km/h 93 % 0 mm
10:26 16.7 °C 15.5 °C 1016.8 hPa SSW 11.3 km/h 22.5 km/h 93 % 0 mm
10:31 16.9 °C 15.6 °C 1016.8 hPa SW 11.3 km/h 20.9 km/h 92 % 0 mm
10:36 17.3 °C 15.8 °C 1016.5 hPa SW 9.7 km/h 20.9 km/h 91 % 0 mm
10:41 17.6 °C 15.9 °C 1016.8 hPa SW 11.3 km/h 25.7 km/h 90 % 0 mm
10:46 17.9 °C 16.1 °C 1016.5 hPa SW 11.3 km/h 19.3 km/h 89 % 0 mm
10:51 18.2 °C 15.9 °C 1016.5 hPa SW 9.7 km/h 20.9 km/h 87 % 0 mm
10:56 18.3 °C 15.9 °C 1016.1 hPa SW 12.9 km/h 25.7 km/h 86 % 0 mm
11:01 18.5 °C 16.1 °C 1016.1 hPa SSW 11.4 km/h 16.7 km/h 86 % 0 mm
11:06 18.7 °C 16.1 °C 1016.1 hPa SSW 17.4 km/h 29.6 km/h 85 % 0 mm
11:11 18.8 °C 16 °C 1016.1 hPa WSW 13.2 km/h 25.7 km/h 84 % 0 mm
11:16 18.9 °C 16.2 °C 1016.1 hPa SW 6.3 km/h 18.5 km/h 84 % 0 mm
11:21 19.2 °C 16.2 °C 1015.8 hPa SW 9.2 km/h 14.8 km/h 83 % 0 mm
11:26 19.4 °C 16.5 °C 1015.8 hPa South 11.1 km/h 18.5 km/h 83 % 0 mm
11:31 19.8 °C 16.6 °C 1015.8 hPa SSW 10.9 km/h 18.5 km/h 82 % 0 mm
11:36 20.1 °C 16.7 °C 1015.8 hPa SW 12.2 km/h 20.4 km/h 81 % 0 mm
11:41 20.3 °C 16.6 °C 1015.5 hPa SSW 15.6 km/h 24.1 km/h 79 % 0 mm
11:46 20.5 °C 16.7 °C 1015.5 hPa SSW 9.2 km/h 16.1 km/h 79 % 0 mm
11:51 20.6 °C 16.8 °C 1015.5 hPa WSW 9.5 km/h 20.4 km/h 79 % 0 mm
11:56 20.7 °C 16.7 °C 1015.5 hPa SW 11.6 km/h 24.1 km/h 78 % 0 mm
12:01 20.8 °C 16.8 °C 1015.1 hPa SW 10.3 km/h 18.5 km/h 78 % 0 mm
12:06 21 °C 16.8 °C 1015.1 hPa SSW 12.6 km/h 24.1 km/h 77 % 0 mm
12:12 21.1 °C 16.9 °C 1015.1 hPa South 9.3 km/h 13 km/h 77 % 0 mm
12:17 21.3 °C 17.1 °C 1014.8 hPa SSW 6.4 km/h 16.7 km/h 77 % 0 mm
12:22 21.6 °C 17.2 °C 1014.8 hPa SW 9 km/h 16.7 km/h 76 % 0 mm
12:27 21.8 °C 17 °C 1014.8 hPa SSW 14.8 km/h 22.2 km/h 74 % 0 mm
12:32 22 °C 17.2 °C 1014.8 hPa SSW 12.4 km/h 18.5 km/h 74 % 0 mm
12:37 22.2 °C 17.3 °C 1014.4 hPa SSW 6.9 km/h 11.3 km/h 74 % 0 mm
12:42 22.4 °C 17.3 °C 1014.4 hPa SW 10.1 km/h 18.5 km/h 73 % 0 mm
12:47 22.6 °C 17.1 °C 1014.1 hPa SSW 10.9 km/h 18.5 km/h 71 % 0 mm
12:52 22.9 °C 17.6 °C 1014.1 hPa SSW 8.5 km/h 16.1 km/h 72 % 0 mm
12:57 23.1 °C 17.1 °C 1014.1 hPa SW 12.1 km/h 18.5 km/h 69 % 0 mm
13:02 23.3 °C 17.1 °C 1014.4 hPa WSW 15.9 km/h 27.8 km/h 68 % 0 mm
13:07 23.3 °C 17.1 °C 1014.4 hPa SW 15.6 km/h 29.6 km/h 68 % 0 mm
13:12 23.3 °C 17.1 °C 1014.4 hPa SSW 11.1 km/h 16.7 km/h 68 % 0 mm
13:17 23.3 °C 17.1 °C 1014.1 hPa SW 15.4 km/h 22.5 km/h 68 % 0 mm
13:22 23.3 °C 17.1 °C 1014.1 hPa SW 9.8 km/h 19.3 km/h 68 % 0 mm
13:27 23.4 °C 17.2 °C 1014.1 hPa West 11.7 km/h 22.2 km/h 68 % 0 mm
13:32 23.6 °C 17.1 °C 1014.1 hPa SSW 12.9 km/h 18.5 km/h 67 % 0 mm
13:37 23.6 °C 17.1 °C 1014.1 hPa SW 18.5 km/h 24.1 km/h 67 % 0 mm
13:42 23.4 °C 16.9 °C 1014.1 hPa SW 13.2 km/h 27.8 km/h 67 % 0 mm
13:47 23.5 °C 17 °C 1013.8 hPa SSW 6.4 km/h 22.2 km/h 67 % 0 mm
13:52 23.6 °C 17.1 °C 1013.8 hPa SSW 6.6 km/h 11.1 km/h 67 % 0 mm
13:57 23.7 °C 16.9 °C 1013.4 hPa South 11.1 km/h 24.1 km/h 66 % 0 mm
14:03 23.7 °C 17.2 °C 1013.4 hPa WSW 6.3 km/h 14.8 km/h 67 % 0 mm
14:08 23.8 °C 17.1 °C 1013.8 hPa SSW 5 km/h 18.5 km/h 66 % 0 mm
14:13 24 °C 17.3 °C 1013.4 hPa SSW 10.8 km/h 14.8 km/h 66 % 0 mm
14:18 24.1 °C 17.3 °C 1013.4 hPa South 8.9 km/h 14.8 km/h 66 % 0 mm
14:23 24.2 °C 17.4 °C 1013.4 hPa South 6.1 km/h 13 km/h 66 % 0 mm
14:28 24.3 °C 17.3 °C 1013.4 hPa SW 10.6 km/h 20.9 km/h 65 % 0 mm
14:33 24.3 °C 17.3 °C 1013.4 hPa South 6.4 km/h 13 km/h 65 % 0 mm
14:38 24.4 °C 17.4 °C 1013.8 hPa West 9.8 km/h 24.1 km/h 65 % 0 mm
14:43 24.4 °C 17.2 °C 1013.4 hPa West 6.1 km/h 11.3 km/h 64 % 0 mm
14:48 24.4 °C 17.2 °C 1013.4 hPa WSW 9.3 km/h 14.8 km/h 64 % 0 mm
14:53 24.3 °C 17.1 °C 1013.4 hPa South 12.7 km/h 16.7 km/h 64 % 0 mm
14:58 24.3 °C 17.3 °C 1013.4 hPa South 10.3 km/h 20.4 km/h 65 % 0 mm
15:03 24.2 °C 17.2 °C 1013.4 hPa SSW 6.9 km/h 13 km/h 65 % 0 mm
15:08 24.2 °C 17.2 °C 1013.4 hPa SSW 6.6 km/h 11.3 km/h 65 % 0 mm
15:13 24.1 °C 17.1 °C 1013.4 hPa South 8.7 km/h 14.8 km/h 65 % 0 mm
15:18 24.1 °C 17.1 °C 1013.4 hPa South 13.4 km/h 20.4 km/h 65 % 0 mm
15:24 24.1 °C 17.3 °C 1013.4 hPa SW 11.9 km/h 16.1 km/h 66 % 0 mm
15:29 24 °C 17 °C 1013.4 hPa SSW 8.2 km/h 16.7 km/h 65 % 0 mm
15:34 24 °C 17 °C 1013.4 hPa SW 7.9 km/h 13 km/h 65 % 0 mm
15:39 23.9 °C 16.9 °C 1013.4 hPa SW 10.5 km/h 18.5 km/h 65 % 0 mm
15:44 23.9 °C 16.9 °C 1013.4 hPa SSW 10.9 km/h 18.5 km/h 65 % 0 mm
15:49 23.8 °C 16.8 °C 1013.4 hPa SW 7.1 km/h 13 km/h 65 % 0 mm
15:54 23.8 °C 17.1 °C 1013.4 hPa SW 7.9 km/h 11.1 km/h 66 % 0 mm
15:59 23.7 °C 16.7 °C 1013.4 hPa South 13.8 km/h 20.4 km/h 65 % 0 mm
16:04 23.6 °C 16.8 °C 1013.4 hPa South 10 km/h 20.4 km/h 66 % 0 mm
16:09 23.5 °C 16.8 °C 1013.4 hPa SSW 7.4 km/h 9.3 km/h 66 % 0 mm
16:14 23.4 °C 16.7 °C 1013.8 hPa South 8.2 km/h 11.1 km/h 66 % 0 mm
16:19 23.3 °C 16.6 °C 1013.8 hPa South 5.6 km/h 8 km/h 66 % 0 mm
16:25 23.3 °C 16.6 °C 1013.8 hPa South 10.1 km/h 13 km/h 66 % 0 mm
16:30 23.2 °C 16.4 °C 1013.4 hPa SW 6 km/h 14.8 km/h 66 % 0 mm
16:35 23.1 °C 16.4 °C 1013.4 hPa SSW 12.4 km/h 16.7 km/h 66 % 0 mm
16:40 23 °C 16.6 °C 1013.4 hPa SSW 5.8 km/h 16.7 km/h 67 % 0 mm
16:45 22.8 °C 16.4 °C 1013.4 hPa South 5.5 km/h 14.8 km/h 67 % 0 mm
16:50 22.7 °C 16.5 °C 1013.4 hPa SW 5.6 km/h 11.1 km/h 68 % 0 mm
16:55 22.6 °C 16.4 °C 1013.8 hPa SSW 8 km/h 14.8 km/h 68 % 0 mm
17:00 22.5 °C 16.3 °C 1013.8 hPa SSW 10.9 km/h 16.7 km/h 68 % 0 mm
17:05 22.3 °C 16.4 °C 1013.8 hPa SW 6.4 km/h 13 km/h 69 % 0 mm
17:10 22.2 °C 16.3 °C 1013.8 hPa SSW 6.4 km/h 18.5 km/h 69 % 0 mm
17:15 22.1 °C 16.1 °C 1013.8 hPa South 9.8 km/h 14.8 km/h 69 % 0 mm
17:20 21.9 °C 16.2 °C 1014.1 hPa SW 13.4 km/h 16.1 km/h 70 % 0 mm
17:25 21.7 °C 16 °C 1014.1 hPa SW 6.6 km/h 13 km/h 70 % 0 mm
17:30 21.6 °C 15.9 °C 1014.1 hPa SSW 7.4 km/h 16.7 km/h 70 % 0 mm
17:35 21.4 °C 15.9 °C 1014.1 hPa SW 7.6 km/h 13 km/h 71 % 0 mm
17:40 21.3 °C 15.8 °C 1014.4 hPa SSW 9 km/h 18.5 km/h 71 % 0 mm
17:45 21.1 °C 15.7 °C 1014.8 hPa SW 8.9 km/h 11.1 km/h 71 % 0 mm
17:51 20.9 °C 15.7 °C 1014.8 hPa SSW 9.7 km/h 16.1 km/h 72 % 0 mm
17:56 20.8 °C 15.6 °C 1014.8 hPa SSW 4.8 km/h 14.5 km/h 72 % 0 mm
18:01 20.7 °C 15.4 °C 1014.8 hPa South 6.9 km/h 11.3 km/h 72 % 0 mm
18:06 20.5 °C 15.3 °C 1014.4 hPa South 6.3 km/h 9.3 km/h 72 % 0 mm
18:11 20.3 °C 15.3 °C 1014.8 hPa SSW 5 km/h 11.3 km/h 73 % 0 mm
18:16 20.2 °C 15.2 °C 1014.8 hPa South 7.4 km/h 11.1 km/h 73 % 0 mm
18:21 20 °C 15 °C 1014.8 hPa South 4.3 km/h 13 km/h 73 % 0 mm
18:26 19.8 °C 14.8 °C 1015.1 hPa SSE 6.6 km/h 11.1 km/h 73 % 0 mm
18:31 19.7 °C 14.9 °C 1015.1 hPa SSW 4.7 km/h 8 km/h 74 % 0 mm
18:36 19.6 °C 14.8 °C 1015.1 hPa SSW 4 km/h 6.4 km/h 74 % 0 mm
18:46 19.2 °C 14.7 °C 1015.5 hPa WSW 6.4 km/h 18.5 km/h 75 % 0 mm
18:51 19.1 °C 14.8 °C 1015.5 hPa SW 6.1 km/h 11.1 km/h 76 % 0 mm
18:56 19.1 °C 14.7 °C 1015.5 hPa SW 7.1 km/h 8 km/h 76 % 0 mm
19:01 18.9 °C 14.8 °C 1015.5 hPa SSW 5.6 km/h 9.7 km/h 77 % 0 mm
19:06 18.9 °C 14.9 °C 1015.5 hPa SW 5.3 km/h 11.1 km/h 78 % 0 mm
19:16 18.8 °C 15.1 °C 1015.1 hPa SSW 5.6 km/h 11.1 km/h 79 % 0 mm
19:21 18.8 °C 15.1 °C 1015.5 hPa SSW 5.8 km/h 7.4 km/h 79 % 0 mm
19:27 18.8 °C 15.1 °C 1015.5 hPa SSW 2.6 km/h 11.3 km/h 79 % 0 mm
19:32 18.8 °C 15.1 °C 1015.8 hPa WSW 5.1 km/h 9.3 km/h 79 % 0 mm
19:37 18.8 °C 15.1 °C 1015.8 hPa SW 3.4 km/h 6.4 km/h 79 % 0 mm
19:42 18.8 °C 15.1 °C 1015.8 hPa SW 2.4 km/h 7.4 km/h 79 % 0 mm
19:47 18.7 °C 15 °C 1015.8 hPa WSW 6.9 km/h 14.8 km/h 79 % 0 mm
19:52 18.7 °C 15 °C 1015.8 hPa SSW 6.4 km/h 11.1 km/h 79 % 0 mm
19:57 18.7 °C 15 °C 1015.8 hPa WSW 7.9 km/h 13 km/h 79 % 0 mm
20:02 18.7 °C 15 °C 1016.5 hPa WNW 5.3 km/h 12.9 km/h 79 % 0 mm
20:07 18.7 °C 15 °C 1016.8 hPa West 5.5 km/h 13 km/h 79 % 0 mm
20:12 18.6 °C 14.9 °C 1016.5 hPa South 1 km/h 3.7 km/h 79 % 0 mm
20:17 18.6 °C 15.1 °C 1016.8 hPa SW 7.1 km/h 11.1 km/h 80 % 0 mm
20:22 18.6 °C 15.2 °C 1017.2 hPa SW 3.4 km/h 5.6 km/h 81 % 0 mm
20:27 18.3 °C 14 °C 1017.8 hPa NNW 10.1 km/h 20.9 km/h 76 % 0 mm
20:32 17.7 °C 13.2 °C 1017.8 hPa NW 5.5 km/h 7.4 km/h 75 % 0 mm
20:37 17.3 °C 13.4 °C 1018.5 hPa WNW 3.5 km/h 7.4 km/h 78 % 0 mm
20:42 17 °C 13.3 °C 1018.5 hPa NNW 4.8 km/h 7.4 km/h 79 % 0 mm
20:47 16.6 °C 12.9 °C 1018.5 hPa NNE 5.3 km/h 9.7 km/h 79 % 0 mm
20:52 16.1 °C 12.2 °C 1018.8 hPa North 4.7 km/h 9.7 km/h 78 % 0 mm
20:57 15.4 °C 11.8 °C 1018.8 hPa North 10.9 km/h 22.2 km/h 79 % 0 mm
21:02 14.9 °C 11.4 °C 1018.8 hPa North 16.1 km/h 24.1 km/h 80 % 0 mm
21:07 14.4 °C 11.2 °C 1018.8 hPa North 13.7 km/h 22.5 km/h 81 % 0 mm
21:13 14.2 °C 11.3 °C 1018.8 hPa North 14.8 km/h 20.4 km/h 83 % 0 mm
21:18 14 °C 11.2 °C 1019.2 hPa North 11.9 km/h 18.5 km/h 83 % 0 mm
21:23 13.7 °C 10.9 °C 1019.2 hPa NNE 15.3 km/h 19.3 km/h 83 % 0 mm
21:28 13.4 °C 10.7 °C 1019.5 hPa NNE 14.2 km/h 20.9 km/h 84 % 0 mm
21:33 13.2 °C 10.7 °C 1019.9 hPa North 12.1 km/h 25.9 km/h 85 % 0 mm
21:38 12.9 °C 10.6 °C 1019.5 hPa North 17.1 km/h 25.9 km/h 86 % 0 mm
21:43 12.7 °C 10.7 °C 1019.9 hPa North 12.4 km/h 18.5 km/h 88 % 0.25 mm
21:48 12.6 °C 10.8 °C 1019.9 hPa NNE 12.6 km/h 18.5 km/h 89 % 0.25 mm
21:53 12.4 °C 10.7 °C 1019.9 hPa NNE 14.3 km/h 20.4 km/h 89 % 0.51 mm
21:58 12.2 °C 10.2 °C 1019.9 hPa NNE 11.7 km/h 16.7 km/h 88 % 0.51 mm
22:03 11.9 °C 10 °C 1019.5 hPa NNE 11.3 km/h 16.7 km/h 88 % 0.76 mm
22:08 11.8 °C 9.8 °C 1019.5 hPa NNE 12.4 km/h 16.7 km/h 88 % 0.76 mm
22:13 11.6 °C 9.7 °C 1019.9 hPa North 10.9 km/h 14.8 km/h 88 % 0.76 mm
22:18 11.5 °C 9.6 °C 1019.9 hPa North 11.6 km/h 14.8 km/h 88 % 0.76 mm
22:23 11.4 °C 9.5 °C 1019.9 hPa NNE 11.7 km/h 16.7 km/h 88 % 0.76 mm
22:28 11.3 °C 9.2 °C 1020.2 hPa NNE 12.1 km/h 18.5 km/h 87 % 0.76 mm
22:33 11.1 °C 8.8 °C 1020.2 hPa North 9.8 km/h 14.8 km/h 86 % 0.76 mm
22:39 10.9 °C 8.7 °C 1020.2 hPa North 10 km/h 13 km/h 86 % 0.76 mm
22:44 10.8 °C 8.6 °C 1020.2 hPa NE 10.1 km/h 18.5 km/h 86 % 0.51 mm
22:49 10.9 °C 8.8 °C 1019.9 hPa NNE 12.9 km/h 18.5 km/h 87 % 0.51 mm
22:54 11 °C 8.9 °C 1019.9 hPa NNE 10.6 km/h 16.7 km/h 87 % 0.25 mm
22:59 11.1 °C 8.6 °C 1019.9 hPa North 13.5 km/h 18.5 km/h 85 % 0.25 mm
23:04 11.1 °C 8.3 °C 1020.2 hPa North 11.1 km/h 16.7 km/h 83 % 0 mm
23:09 11.1 °C 7.9 °C 1019.9 hPa NE 15.1 km/h 22.5 km/h 81 % 0 mm
23:14 11.1 °C 7.8 °C 1020.2 hPa NE 10.8 km/h 17.7 km/h 80 % 0 mm
23:19 11.2 °C 7.7 °C 1020.5 hPa North 9.8 km/h 16.7 km/h 79 % 0 mm
23:24 11.3 °C 7.6 °C 1020.9 hPa NNE 6.1 km/h 16.1 km/h 78 % 0 mm
23:29 11.3 °C 7.4 °C 1020.9 hPa NNW 8.2 km/h 11.1 km/h 77 % 0 mm
23:34 11.2 °C 7.3 °C 1020.9 hPa North 4.7 km/h 6.4 km/h 77 % 0 mm
23:39 11.2 °C 7.2 °C 1020.5 hPa North 6.6 km/h 13 km/h 76 % 0 mm
23:44 11.2 °C 6.9 °C 1020.9 hPa North 7.6 km/h 14.8 km/h 75 % 0 mm
23:49 11.1 °C 6.7 °C 1020.9 hPa North 9.2 km/h 16.7 km/h 74 % 0 mm
23:54 11.2 °C 6.5 °C 1020.9 hPa North 6.8 km/h 11.1 km/h 73 % 0 mm
23:59 11.2 °C 6.3 °C 1020.9 hPa North 9.5 km/h 16.7 km/h 72 % 0 mm
Crab Meadow Weather
Compliments of Weather Underground - 3 mb

Script developed by  Jim McMurry - jmcmurry@mwt.net Adapted for the template by  Wim van der Kuil - Leuven-Template.eu

Astronomy: It takes 16 million horsepower to break loose from the Earth's gravitational pull.